16:07
Airports
Links
Donate
Help keep this website running!
PayPal
Bitcoin
METAR
YSCB 191600Z AUTO 12004KT 9999 -RA SCT028 SCT041 BKN063 15/15 Q1020
Current Weather Conditions at YSCB
VFR 16:00:00 19-10-17
Automated station, no observer
Altimeter:30.12 hg
Temp:15.0°c 59°f
Dew point:15.0°c 59°f
Wind:4 knots, 4.6 mph, 2 m/s, from 120°
Visibility:6.21 statute miles
6300(BKN) Broken
4100(SCT) Scattered
2800(SCT) Scattered
Past METAR reports
VFR 15:30:00 19-10-17
Automated station, no observer
Altimeter:30.12 hg
Temp:15.0°c 59°f
Dew point:15.0°c 59°f
Wind:4 knots, 4.6 mph, 2 m/s, from 330°
Visibility:6.21 statute miles
8500(OVC) Overcast
YSCB 191530Z AUTO 33004KT 9999 -RA OVC085 15/15 Q1020
VFR 15:00:00 19-10-17
Automated station, no observer
Altimeter:30.12 hg
Temp:15.0°c 59°f
Dew point:15.0°c 59°f
Wind:2 knots, 2.3 mph, 1 m/s, from 60°
Visibility:6.21 statute miles
7500(BKN) Broken
3800(SCT) Scattered
2500(SCT) Scattered
YSCB 191500Z AUTO 06002KT 9999 -SHRA SCT025 SCT038 BKN075 15/15 Q1020
VFR 14:30:00 19-10-17
Automated station, no observer
Altimeter:30.15 hg
Temp:16.0°c 61°f
Dew point:15.0°c 59°f
Wind:4 knots, 4.6 mph, 2 m/s, from 270°
Visibility:6.21 statute miles
7600(OVC) Overcast
6100(SCT) Scattered
YSCB 191430Z AUTO 27004KT 9999 -SHRA SCT061 OVC076 16/15 Q1021
VFR 14:00:00 19-10-17
Automated station, no observer
Altimeter:30.15 hg
Temp:16.0°c 61°f
Dew point:15.0°c 59°f
Wind:5 knots, 5.8 mph, 3 m/s, from 300°
Visibility:6.21 statute miles
7400(OVC) Overcast
YSCB 191400Z AUTO 30005KT 270V330 9999 // OVC074 16/15 Q1021
VFR 13:30:00 19-10-17
Automated station, no observer
Altimeter:30.15 hg
Temp:15.0°c 59°f
Dew point:15.0°c 59°f
Wind:9 knots, 10.4 mph, 5 m/s, from 20°
Visibility:6.21 statute miles
7200(OVC) Overcast
5300(SCT) Scattered
YSCB 191330Z AUTO 02009KT 9999 -RA SCT053 OVC072 15/15 Q1021 RERA
VFR 13:00:00 19-10-17
Automated station, no observer
Altimeter:30.18 hg
Temp:15.0°c 59°f
Dew point:15.0°c 59°f
Wind:8 knots, 9.2 mph, 4 m/s, from 350°
Visibility:6.21 statute miles
6200(OVC) Overcast
YSCB 191300Z AUTO 35008KT 9999 SHRA OVC062 15/15 Q1022
TAF
TAF AMD YSCB 191031Z 1910/2012 34007KT 9999 -RA BKN015 BKN030 BECMG 1913/1915 31006KT 9999 -RA BKN008 BECMG 1922/1924 05007KT 9999 -SHRA BKN020 BECMG 2001/2003 10010KT 9999 -SHRA BKN025 FM200900 11010KT 9999 FEW030 TEMPO 1910/1913 4000 RA BKN010 TEMPO 1913/1923 3000 DZ SHRA BKN005 INTER 1923/2008 5000 SHRA BKN015
Forecast at YSCB
10:00 19-10-17 to 13:00 19-10-17
-RA
Wind:7 Knots from 340°
Visibility:6.21 statute miles
1500BKN Broken
3000BKN Broken
TEMPO 10:00 19-10-17 to 13:00 19-10-17
RA
Visibility:2.49 statute miles
1000BKN Broken
BECMG 13:00 19-10-17 to 22:00 19-10-17
-RA
Wind:6 Knots from 310°
Visibility:6.21 statute miles
800BKN Broken
TEMPO 13:00 19-10-17 to 23:00 19-10-17
DZ SHRA
Visibility:1.86 statute miles
500BKN Broken
BECMG 22:00 19-10-17 to 01:00 20-10-17
-SHRA
Wind:7 Knots from 50°
Visibility:6.21 statute miles
2000BKN Broken
TEMPO 23:00 19-10-17 to 08:00 20-10-17
SHRA
Visibility:3.11 statute miles
1500BKN Broken
BECMG 01:00 20-10-17 to 09:00 20-10-17
-SHRA
Wind:10 Knots from 100°
Visibility:6.21 statute miles
2500BKN Broken
FM 09:00 20-10-17 to 12:00 20-10-17
Wind:10 Knots from 110°
Visibility:6.21 statute miles
3000FEW A few